createdAt,value
2023-07-01T00:02:06.445Z,13.67
2023-07-01T00:04:33.551Z,13.68
2023-07-01T00:07:00.419Z,13.70
2023-07-01T00:09:27.352Z,13.72
2023-07-01T00:11:54.569Z,13.77
2023-07-01T00:14:21.646Z,13.82
2023-07-01T00:16:48.700Z,13.84
2023-07-01T00:19:15.860Z,13.87
2023-07-01T00:21:42.822Z,13.90
2023-07-01T00:24:10.014Z,13.94
2023-07-01T00:26:37.162Z,13.97
2023-07-01T00:29:04.135Z,14.01
2023-07-01T00:31:31.625Z,14.03
2023-07-01T00:33:58.955Z,14.03
2023-07-01T00:36:25.987Z,14.04
2023-07-01T00:38:53.268Z,14.07
2023-07-01T00:41:21.728Z,14.09
2023-07-01T00:43:48.925Z,14.10
2023-07-01T00:46:17.949Z,14.11
2023-07-01T00:48:45.970Z,14.16
2023-07-01T00:51:13.652Z,14.17
2023-07-01T00:53:41.680Z,14.20
2023-07-01T00:56:09.379Z,14.21
2023-07-01T00:58:36.858Z,14.23
2023-07-01T01:01:09.065Z,14.27
2023-07-01T01:04:04.922Z,14.28
2023-07-01T01:06:41.256Z,14.26
2023-07-01T01:09:25.902Z,14.30
2023-07-01T01:11:55.809Z,14.25
2023-07-01T01:14:23.738Z,14.27
2023-07-01T01:16:51.126Z,14.28
2023-07-01T01:19:28.606Z,14.31
2023-07-01T01:22:14.084Z,14.36
2023-07-01T01:24:44.249Z,14.35
2023-07-01T01:27:16.398Z,14.37
2023-07-01T01:29:43.564Z,14.37
2023-07-01T01:32:11.134Z,14.37
2023-07-01T01:34:38.022Z,14.39
2023-07-01T01:37:14.370Z,14.41
2023-07-01T01:39:48.169Z,14.42
2023-07-01T01:42:25.198Z,14.47
2023-07-01T01:44:54.921Z,14.50
2023-07-01T01:47:28.306Z,14.53
2023-07-01T01:49:59.786Z,14.54
2023-07-01T01:52:27.220Z,14.52
2023-07-01T01:54:57.461Z,14.54
2023-07-01T01:57:25.567Z,14.55
2023-07-01T01:59:52.859Z,14.56
2023-07-01T02:02:19.867Z,14.57
2023-07-01T02:04:46.993Z,14.59
2023-07-01T02:07:14.046Z,14.62
2023-07-01T02:09:40.920Z,14.63
2023-07-01T02:12:08.229Z,14.63
2023-07-01T02:14:35.409Z,14.64
2023-07-01T02:17:02.424Z,14.67
2023-07-01T02:19:29.932Z,14.69
2023-07-01T02:21:56.949Z,14.72
2023-07-01T02:24:23.841Z,14.76
2023-07-01T02:26:51.621Z,14.76
2023-07-01T02:29:19.023Z,14.80
2023-07-01T02:31:45.883Z,14.81
2023-07-01T02:34:12.901Z,14.83
2023-07-01T02:36:41.754Z,14.84
2023-07-01T02:39:08.665Z,14.86
2023-07-01T02:41:35.671Z,14.88
2023-07-01T02:44:02.647Z,14.87
2023-07-01T02:46:30.098Z,14.87
2023-07-01T02:48:57.159Z,14.86
2023-07-01T02:51:24.185Z,14.87
2023-07-01T02:53:51.107Z,14.86
2023-07-01T02:56:18.051Z,14.90
2023-07-01T02:58:44.998Z,14.93
2023-07-01T03:01:12.113Z,14.99
2023-07-01T03:03:39.047Z,15.03
2023-07-01T03:06:05.958Z,15.04
2023-07-01T03:08:32.845Z,15.06
2023-07-01T03:10:59.708Z,15.07
2023-07-01T03:13:26.614Z,15.09
2023-07-01T03:15:53.713Z,15.06
2023-07-01T03:18:20.746Z,15.07
2023-07-01T03:20:47.951Z,15.10
2023-07-01T03:23:15.296Z,15.14
2023-07-01T03:25:42.846Z,15.19
2023-07-01T03:28:10.105Z,15.25
2023-07-01T03:30:37.108Z,15.33
2023-07-01T03:33:04.136Z,15.34
2023-07-01T03:35:31.162Z,15.35
2023-07-01T03:37:58.095Z,15.41
2023-07-01T03:40:25.126Z,15.42
2023-07-01T03:42:52.088Z,15.42
2023-07-01T03:45:19.040Z,15.40
2023-07-01T03:47:46.661Z,15.38
2023-07-01T03:50:15.543Z,15.32
2023-07-01T03:52:43.504Z,15.28
2023-07-01T03:55:15.600Z,15.28
2023-07-01T03:57:42.915Z,15.26
2023-07-01T04:00:18.670Z,15.25
2023-07-01T04:02:50.790Z,15.27
2023-07-01T04:05:19.384Z,15.30
2023-07-01T04:07:48.586Z,15.40
2023-07-01T04:10:16.233Z,15.49
2023-07-01T04:12:43.531Z,15.54
2023-07-01T04:15:13.781Z,15.63
2023-07-01T04:17:44.013Z,15.74
2023-07-01T04:20:12.481Z,15.81
2023-07-01T04:22:39.432Z,15.89
2023-07-01T04:25:10.160Z,16.03
2023-07-01T04:27:37.535Z,16.20
2023-07-01T04:30:05.901Z,16.35
2023-07-01T04:32:32.869Z,16.45
2023-07-01T04:34:59.757Z,16.53
2023-07-01T04:37:26.868Z,16.53
2023-07-01T04:39:53.934Z,16.57
2023-07-01T04:42:20.860Z,16.61
2023-07-01T04:44:55.406Z,16.58
2023-07-01T04:47:26.005Z,16.58
2023-07-01T04:49:56.399Z,16.51
2023-07-01T04:52:24.956Z,16.52
2023-07-01T04:54:53.477Z,16.56
2023-07-01T04:57:20.993Z,16.55
2023-07-01T04:59:48.055Z,16.54
2023-07-01T05:02:15.275Z,16.61
2023-07-01T05:04:42.490Z,16.60
2023-07-01T05:07:09.594Z,16.67
2023-07-01T05:09:36.464Z,16.66
2023-07-01T05:12:04.244Z,16.65
2023-07-01T05:14:31.436Z,16.72
2023-07-01T05:16:58.500Z,16.77
2023-07-01T05:19:25.471Z,16.86
2023-07-01T05:21:54.507Z,16.94
2023-07-01T05:24:22.098Z,17.03
2023-07-01T05:26:50.080Z,17.13
2023-07-01T05:29:18.615Z,17.25
2023-07-01T05:31:45.572Z,17.32
2023-07-01T05:34:12.522Z,17.31
2023-07-01T05:36:39.498Z,17.32
2023-07-01T05:39:06.548Z,17.36
2023-07-01T05:41:33.509Z,17.42
2023-07-01T05:44:02.262Z,17.33
2023-07-01T05:46:31.776Z,17.23
2023-07-01T05:48:58.940Z,17.14
2023-07-01T05:51:26.380Z,17.06
2023-07-01T05:53:53.653Z,17.02
2023-07-01T05:56:20.520Z,17.03
2023-07-01T05:58:47.461Z,17.12
2023-07-01T06:01:14.482Z,17.25
2023-07-01T06:03:41.549Z,17.43
2023-07-01T06:06:08.600Z,17.61
2023-07-01T06:08:35.586Z,17.75
2023-07-01T06:11:02.568Z,17.89
2023-07-01T06:13:29.539Z,17.95
2023-07-01T06:15:56.626Z,17.87
2023-07-01T06:18:23.680Z,17.71
2023-07-01T06:20:50.695Z,17.64
2023-07-01T06:23:18.520Z,17.70
2023-07-01T06:25:45.431Z,17.78
2023-07-01T06:28:12.330Z,17.94
2023-07-01T06:30:40.347Z,18.17
2023-07-01T06:33:09.626Z,18.28
2023-07-01T06:35:36.721Z,18.36
2023-07-01T06:38:04.232Z,18.36
2023-07-01T06:40:31.181Z,18.25
2023-07-01T06:42:58.293Z,18.24
2023-07-01T06:45:25.394Z,18.25
2023-07-01T06:47:52.548Z,18.36
2023-07-01T06:50:19.561Z,18.35
2023-07-01T06:52:47.344Z,18.24
2023-07-01T06:55:15.005Z,18.28
2023-07-01T06:57:42.836Z,18.37
2023-07-01T07:00:12.447Z,18.53
2023-07-01T07:02:40.688Z,18.68
2023-07-01T07:05:09.757Z,18.73
2023-07-01T07:07:37.024Z,18.84
2023-07-01T07:10:04.736Z,19.00
2023-07-01T07:12:32.074Z,19.27
2023-07-01T07:14:59.034Z,19.47
2023-07-01T07:17:26.205Z,19.55
2023-07-01T07:19:53.289Z,19.50
2023-07-01T07:22:20.742Z,19.44
2023-07-01T07:24:47.766Z,19.39
2023-07-01T07:27:14.768Z,19.39
2023-07-01T07:29:41.715Z,19.44
2023-07-01T07:32:09.220Z,19.49
2023-07-01T07:34:36.230Z,19.50
2023-07-01T07:37:03.183Z,19.68
2023-07-01T07:39:30.176Z,19.84
2023-07-01T07:41:57.228Z,19.90
2023-07-01T07:44:24.280Z,19.75
2023-07-01T07:46:51.246Z,19.57
2023-07-01T07:49:18.269Z,19.45
2023-07-01T07:51:45.365Z,19.46
2023-07-01T07:54:12.223Z,19.56
2023-07-01T07:56:39.127Z,19.65
2023-07-01T07:59:06.215Z,19.76
2023-07-01T08:01:33.167Z,19.80
2023-07-01T08:04:00.313Z,19.79
2023-07-01T08:06:27.276Z,19.81
2023-07-01T08:08:54.260Z,19.85
2023-07-01T08:11:21.319Z,19.96
2023-07-01T08:13:48.285Z,20.12
2023-07-01T08:16:16.172Z,20.28
2023-07-01T08:18:43.299Z,20.46
2023-07-01T08:21:10.258Z,20.61
2023-07-01T08:23:37.233Z,20.63
2023-07-01T08:26:04.310Z,20.68
2023-07-01T08:28:33.093Z,20.68
2023-07-01T08:31:00.355Z,20.81
2023-07-01T08:33:27.658Z,20.83
2023-07-01T08:35:54.494Z,20.64
2023-07-01T08:38:21.429Z,20.55
2023-07-01T08:40:51.632Z,20.65
2023-07-01T08:43:24.846Z,20.83
2023-07-01T08:45:52.951Z,21.00
2023-07-01T08:48:24.122Z,20.88
2023-07-01T08:51:02.765Z,20.91
2023-07-01T08:53:30.094Z,20.77
2023-07-01T08:55:59.023Z,20.83
2023-07-01T08:58:27.225Z,20.90
2023-07-01T09:00:54.422Z,20.95
2023-07-01T09:03:22.908Z,20.96
2023-07-01T09:05:50.558Z,21.00
2023-07-01T09:08:17.434Z,21.07
2023-07-01T09:10:44.958Z,21.13
2023-07-01T09:13:12.151Z,21.15
2023-07-01T09:15:50.157Z,21.26
2023-07-01T09:18:26.100Z,21.43
2023-07-01T09:20:54.193Z,21.62
2023-07-01T09:23:38.007Z,21.86
2023-07-01T09:26:15.174Z,21.92
2023-07-01T09:28:44.739Z,21.89
2023-07-01T09:31:14.375Z,21.96
2023-07-01T09:33:42.152Z,22.00
2023-07-01T09:36:10.687Z,22.10
2023-07-01T09:38:52.416Z,22.42
2023-07-01T09:41:24.427Z,22.58
2023-07-01T09:43:56.332Z,22.66
2023-07-01T09:46:23.733Z,22.69
2023-07-01T09:48:57.899Z,22.79
2023-07-01T09:51:27.813Z,23.42
2023-07-01T09:53:55.017Z,23.81
2023-07-01T09:56:22.060Z,23.52
2023-07-01T09:58:51.433Z,23.65
2023-07-01T10:01:19.653Z,24.06
2023-07-01T10:03:46.772Z,24.50
2023-07-01T10:06:15.040Z,25.14
2023-07-01T10:08:43.791Z,25.51
2023-07-01T10:11:16.355Z,25.97
2023-07-01T10:13:49.997Z,26.58
2023-07-01T10:16:17.734Z,26.33
2023-07-01T10:18:44.750Z,25.46
2023-07-01T10:21:24.030Z,24.88
2023-07-01T10:23:52.863Z,24.57
2023-07-01T10:26:49.569Z,25.41
2023-07-01T10:29:28.879Z,26.30
2023-07-01T10:32:11.933Z,26.24
2023-07-01T10:34:53.986Z,25.50
2023-07-01T10:37:23.547Z,24.71
2023-07-01T10:39:51.251Z,24.18
2023-07-01T10:42:36.057Z,24.22
2023-07-01T10:45:13.229Z,25.13
2023-07-01T10:47:51.244Z,26.14
2023-07-01T10:50:19.225Z,27.08
2023-07-01T10:52:58.562Z,27.58
2023-07-01T10:55:45.400Z,27.42
2023-07-01T10:58:15.810Z,26.37
2023-07-01T11:00:43.487Z,26.06
2023-07-01T11:03:39.789Z,26.20
2023-07-01T11:06:09.192Z,26.37
2023-07-01T11:08:51.476Z,26.87
2023-07-01T11:11:27.437Z,27.54
2023-07-01T11:14:06.310Z,27.96
2023-07-01T11:16:34.618Z,28.11
2023-07-01T11:19:07.679Z,28.09
2023-07-01T11:21:35.247Z,27.43
2023-07-01T11:24:04.477Z,26.95
2023-07-01T11:26:34.346Z,26.96
2023-07-01T11:29:02.312Z,27.13
2023-07-01T11:31:34.165Z,27.55
2023-07-01T11:34:02.515Z,28.33
2023-07-01T11:36:45.307Z,28.95
2023-07-01T11:39:19.408Z,28.70
2023-07-01T11:41:58.729Z,27.98
2023-07-01T11:44:27.632Z,27.16
2023-07-01T11:46:57.081Z,26.42
2023-07-01T11:49:25.307Z,25.80
2023-07-01T11:51:54.547Z,25.59
2023-07-01T11:54:46.389Z,26.20
2023-07-01T11:57:21.818Z,26.67
2023-07-01T11:59:53.618Z,26.59
2023-07-01T12:02:31.136Z,26.62
2023-07-01T12:04:58.877Z,25.74
2023-07-01T12:07:26.176Z,25.70
2023-07-01T12:09:53.214Z,25.63
2023-07-01T12:12:37.622Z,26.08
2023-07-01T12:15:10.793Z,26.75
2023-07-01T12:17:37.921Z,26.71
2023-07-01T12:20:09.823Z,25.96
2023-07-01T12:22:38.418Z,25.10
2023-07-01T12:25:05.746Z,24.60
2023-07-01T12:27:35.168Z,24.44
2023-07-01T12:30:05.855Z,24.95
2023-07-01T12:32:32.971Z,25.73
2023-07-01T12:34:59.950Z,25.87
2023-07-01T12:37:27.794Z,25.91
2023-07-01T12:39:55.892Z,25.69
2023-07-01T12:42:23.462Z,25.80
2023-07-01T12:44:50.535Z,26.78
2023-07-01T12:47:17.631Z,27.77
2023-07-01T12:49:44.663Z,28.23
2023-07-01T12:52:11.601Z,28.11
2023-07-01T12:54:38.645Z,27.46
2023-07-01T12:57:05.779Z,26.90
2023-07-01T12:59:32.695Z,26.69
2023-07-01T13:01:59.664Z,26.24
2023-07-01T13:04:30.500Z,26.16
2023-07-01T13:06:57.573Z,26.13
2023-07-01T13:09:48.526Z,26.73
2023-07-01T13:12:18.523Z,27.10
2023-07-01T13:14:45.426Z,26.76
2023-07-01T13:17:12.403Z,25.81
2023-07-01T13:19:39.353Z,25.13
2023-07-01T13:22:06.414Z,24.70
2023-07-01T13:24:42.050Z,24.82
2023-07-01T13:27:11.784Z,25.02
2023-07-01T13:29:38.803Z,25.09
2023-07-01T13:32:06.145Z,25.16
2023-07-01T13:34:42.090Z,25.13
2023-07-01T13:37:12.292Z,25.00
2023-07-01T13:39:50.988Z,24.71
2023-07-01T13:42:25.481Z,25.04
2023-07-01T13:44:56.822Z,26.26
2023-07-01T13:47:43.321Z,27.33
2023-07-01T13:50:14.498Z,27.54
2023-07-01T13:52:42.634Z,27.59
2023-07-01T13:55:10.741Z,28.33
2023-07-01T13:57:37.820Z,28.77
2023-07-01T14:00:27.752Z,29.60
2023-07-01T14:02:54.885Z,29.49
2023-07-01T14:05:25.270Z,30.13
2023-07-01T14:07:59.523Z,30.15
2023-07-01T14:10:31.608Z,29.72
2023-07-01T14:12:58.771Z,29.64
2023-07-01T14:15:47.864Z,30.40
2023-07-01T14:18:18.103Z,29.98
2023-07-01T14:20:46.168Z,29.91
2023-07-01T14:23:20.908Z,30.29
2023-07-01T14:25:49.314Z,28.99
2023-07-01T14:28:17.125Z,28.67
2023-07-01T14:30:47.160Z,28.84
2023-07-01T14:33:15.419Z,28.86
2023-07-01T14:35:42.421Z,28.63
2023-07-01T14:38:10.437Z,28.92
2023-07-01T14:40:37.758Z,28.88
2023-07-01T14:43:08.955Z,28.65
2023-07-01T14:45:36.781Z,27.66
2023-07-01T14:48:03.955Z,26.76
2023-07-01T14:50:30.786Z,26.70
2023-07-01T14:52:57.735Z,26.45
2023-07-01T14:55:24.610Z,26.35
2023-07-01T14:57:51.591Z,26.49
2023-07-01T15:00:18.627Z,26.87
2023-07-01T15:02:45.543Z,26.69
2023-07-01T15:05:12.469Z,26.17
2023-07-01T15:07:40.026Z,25.81
2023-07-01T15:10:07.330Z,25.92
2023-07-01T15:12:35.103Z,26.54
2023-07-01T15:15:02.041Z,27.35
2023-07-01T15:17:32.490Z,27.92
2023-07-01T15:19:59.357Z,28.07
2023-07-01T15:22:26.226Z,27.47
2023-07-01T15:24:53.111Z,26.88
2023-07-01T15:27:20.256Z,26.37
2023-07-01T15:29:47.105Z,25.91
2023-07-01T15:32:13.977Z,25.76
2023-07-01T15:34:40.850Z,25.58
2023-07-01T15:37:07.747Z,25.53
2023-07-01T15:39:34.621Z,25.41
2023-07-01T15:42:01.609Z,25.57
2023-07-01T15:44:29.926Z,25.63
2023-07-01T15:46:56.957Z,25.36
2023-07-01T15:49:24.089Z,24.87
2023-07-01T15:51:50.956Z,24.52
2023-07-01T15:54:17.915Z,23.96
2023-07-01T15:56:44.819Z,23.77
2023-07-01T15:59:11.817Z,23.63
2023-07-01T16:01:38.795Z,23.53
2023-07-01T16:04:06.111Z,23.46
2023-07-01T16:06:33.375Z,23.38
2023-07-01T16:09:00.308Z,23.21
2023-07-01T16:11:31.851Z,23.13
2023-07-01T16:14:02.518Z,23.14
2023-07-01T16:16:43.602Z,23.04
2023-07-01T16:19:13.806Z,23.03
2023-07-01T16:21:41.165Z,23.03
2023-07-01T16:24:33.435Z,23.02
2023-07-01T16:27:00.354Z,22.90
2023-07-01T16:29:30.581Z,22.92
2023-07-01T16:31:57.611Z,22.83
2023-07-01T16:34:24.616Z,22.80
2023-07-01T16:36:51.529Z,22.77
2023-07-01T16:39:19.040Z,22.73
2023-07-01T16:41:46.069Z,22.68
2023-07-01T16:44:13.092Z,22.61
2023-07-01T16:46:40.770Z,22.58
2023-07-01T16:49:10.023Z,22.53
2023-07-01T16:51:37.850Z,22.52
2023-07-01T16:54:16.351Z,22.54
2023-07-01T16:56:46.084Z,22.48
2023-07-01T16:59:27.961Z,22.50
2023-07-01T17:01:54.943Z,22.36
2023-07-01T17:04:31.004Z,22.35
2023-07-01T17:06:58.477Z,22.27
2023-07-01T17:09:37.441Z,22.29
2023-07-01T17:12:05.521Z,22.25
2023-07-01T17:14:44.624Z,22.28
2023-07-01T17:17:29.845Z,22.28
2023-07-01T17:20:07.347Z,22.19
2023-07-01T17:22:35.556Z,22.15
2023-07-01T17:25:03.927Z,22.11
2023-07-01T17:27:34.460Z,22.08
2023-07-01T17:30:01.483Z,22.09
2023-07-01T17:32:35.304Z,22.06
2023-07-01T17:35:24.633Z,22.09
2023-07-01T17:37:51.734Z,22.03
2023-07-01T17:40:21.162Z,22.06
2023-07-01T17:42:48.962Z,22.04
2023-07-01T17:45:16.410Z,21.99
2023-07-01T17:47:43.547Z,21.83
2023-07-01T17:52:44.728Z,21.63
2023-07-01T17:55:15.014Z,21.56
2023-07-01T17:57:50.464Z,21.46
2023-07-01T18:00:22.140Z,21.32
2023-07-01T18:02:49.480Z,21.20
2023-07-01T18:05:16.997Z,21.02
2023-07-01T18:07:44.293Z,20.73
2023-07-01T18:10:11.816Z,20.43
2023-07-01T18:12:39.611Z,20.12
2023-07-01T18:17:38.399Z,19.64
2023-07-01T18:20:06.191Z,19.47
2023-07-01T18:22:33.340Z,19.33
2023-07-01T18:25:00.326Z,19.18
2023-07-01T18:27:27.181Z,19.06
2023-07-01T18:29:54.311Z,18.94
2023-07-01T18:32:21.399Z,18.74
2023-07-01T18:34:48.398Z,18.51
2023-07-01T18:37:15.439Z,18.26
2023-07-01T18:39:42.353Z,17.99
2023-07-01T18:42:09.976Z,17.82
2023-07-01T18:44:38.420Z,17.62
2023-07-01T18:47:05.907Z,17.45
2023-07-01T18:49:32.974Z,17.33
2023-07-01T18:52:02.224Z,17.23
2023-07-01T18:54:31.289Z,17.14
2023-07-01T18:56:58.351Z,17.05
2023-07-01T18:59:25.343Z,16.94
2023-07-01T19:01:52.346Z,16.90
2023-07-01T19:04:19.432Z,17.02
2023-07-01T19:06:46.391Z,17.13
2023-07-01T19:09:14.210Z,17.22
2023-07-01T19:11:41.098Z,17.27
2023-07-01T19:14:08.004Z,17.36
2023-07-01T19:16:34.899Z,17.36
2023-07-01T19:19:01.910Z,17.36
2023-07-01T19:21:30.481Z,17.26
2023-07-01T19:23:57.383Z,17.23
2023-07-01T19:26:24.357Z,17.15
2023-07-01T19:28:51.315Z,17.06
2023-07-01T19:31:18.280Z,16.94
2023-07-01T19:33:45.260Z,16.93
2023-07-01T19:36:12.244Z,16.99
2023-07-01T19:38:39.045Z,17.14
2023-07-01T19:41:06.003Z,17.31
2023-07-01T19:43:33.047Z,17.53
2023-07-01T19:46:00.154Z,17.72
2023-07-01T19:48:27.131Z,17.84
2023-07-01T19:50:54.106Z,17.86
2023-07-01T19:53:22.262Z,17.88
2023-07-01T19:55:49.425Z,17.97
2023-07-01T19:58:20.676Z,18.08
2023-07-01T20:00:47.840Z,18.16
2023-07-01T20:03:14.923Z,18.21
2023-07-01T20:05:46.098Z,18.20
2023-07-01T20:08:13.712Z,18.18
2023-07-01T20:10:40.987Z,18.17
2023-07-01T20:13:08.425Z,18.18
2023-07-01T20:15:35.895Z,18.17
2023-07-01T20:18:03.111Z,18.21
2023-07-01T20:20:32.538Z,18.25
2023-07-01T20:22:59.596Z,18.23
2023-07-01T20:25:26.566Z,18.22
2023-07-01T20:27:53.586Z,18.23
2023-07-01T20:30:20.747Z,18.25
2023-07-01T20:32:48.032Z,18.23
2023-07-01T20:35:15.194Z,18.26
2023-07-01T20:37:42.157Z,18.26
2023-07-01T20:40:09.824Z,18.27
2023-07-01T20:42:38.252Z,18.26
2023-07-01T20:45:06.298Z,18.27
2023-07-01T20:47:33.215Z,18.27
2023-07-01T20:50:00.251Z,18.30
2023-07-01T20:52:27.144Z,18.34
2023-07-01T20:54:54.289Z,18.31
2023-07-01T20:57:21.186Z,18.27
2023-07-01T20:59:48.217Z,18.24
2023-07-01T21:02:15.558Z,18.21
2023-07-01T21:04:42.752Z,18.18
2023-07-01T21:07:09.900Z,18.13
2023-07-01T21:09:36.952Z,18.08
2023-07-01T21:12:04.490Z,18.02
2023-07-01T21:14:31.717Z,17.94
2023-07-01T21:16:58.944Z,17.89
2023-07-01T21:19:26.066Z,17.86
2023-07-01T21:21:53.138Z,17.85
2023-07-01T21:24:20.192Z,17.82
2023-07-01T21:26:47.315Z,17.80
2023-07-01T21:29:16.652Z,17.77
2023-07-01T21:31:48.497Z,17.80
2023-07-01T21:34:19.152Z,17.80
2023-07-01T21:36:48.089Z,17.79
2023-07-01T21:39:15.415Z,17.82
2023-07-01T21:41:42.975Z,17.82
2023-07-01T21:44:10.800Z,17.82
2023-07-01T21:46:39.477Z,17.82
2023-07-01T21:49:11.329Z,17.83
2023-07-01T21:51:41.282Z,17.81
2023-07-01T21:54:08.166Z,17.75
2023-07-01T21:56:40.237Z,17.79
2023-07-01T21:59:07.373Z,17.78
2023-07-01T22:01:39.556Z,17.79
2023-07-01T22:04:08.203Z,17.77
2023-07-01T22:06:41.878Z,17.80
2023-07-01T22:09:09.430Z,17.80
2023-07-01T22:11:36.903Z,17.80
2023-07-01T22:14:06.132Z,17.80
2023-07-01T22:16:33.320Z,17.79
2023-07-01T22:19:00.241Z,17.79
2023-07-01T22:21:31.097Z,17.77
2023-07-01T22:23:59.564Z,17.81
2023-07-01T22:26:26.521Z,17.83
2023-07-01T22:28:53.786Z,17.83
2023-07-01T22:31:20.915Z,17.82
2023-07-01T22:33:48.049Z,17.80
2023-07-01T22:36:14.968Z,17.81
2023-07-01T22:38:41.932Z,17.81
2023-07-01T22:41:08.926Z,17.82
2023-07-01T22:43:36.033Z,17.81
2023-07-01T22:46:02.969Z,17.78
2023-07-01T22:48:30.169Z,17.75
2023-07-01T22:50:57.128Z,17.71
2023-07-01T22:53:24.146Z,17.67
2023-07-01T22:55:51.231Z,17.64
2023-07-01T22:58:18.192Z,17.60
2023-07-01T23:00:45.301Z,17.59
2023-07-01T23:03:12.296Z,17.58
2023-07-01T23:05:39.644Z,17.54
2023-07-01T23:08:06.809Z,17.50
2023-07-01T23:10:33.671Z,17.48
2023-07-01T23:13:00.709Z,17.45
2023-07-01T23:15:27.622Z,17.38
2023-07-01T23:17:54.615Z,17.34
2023-07-01T23:20:21.522Z,17.30
2023-07-01T23:22:50.201Z,17.26
2023-07-01T23:25:17.436Z,17.23
2023-07-01T23:27:44.651Z,17.17
2023-07-01T23:30:17.789Z,17.15
2023-07-01T23:32:54.192Z,17.13
2023-07-01T23:35:22.985Z,17.08
2023-07-01T23:37:50.649Z,17.05
2023-07-01T23:40:18.038Z,16.98
2023-07-01T23:42:45.235Z,16.95
2023-07-01T23:45:16.364Z,16.92
2023-07-01T23:47:45.417Z,16.91
2023-07-01T23:50:13.283Z,16.90
2023-07-01T23:52:41.109Z,16.87
2023-07-01T23:55:09.283Z,16.87
2023-07-01T23:57:39.147Z,16.84
